Terminal Aerodrome Forecast
Issued by NWS

Home | Current Version | Previous Version | Graphics & Text | Print | Product List | Glossary On
Versions: 1 2 3 4 5 6 7 8 9 10 11 12 13 14 15 16 17 18 19 20 21 22 23 24 25 26 27 28 29 30 31
000
FTUS43 KICT 231657 AAA
TAFRSL
TAF AMD
KRSL 231657Z 2317/2412 14015KT 5SM -SHRA VCTS SCT009 OVC015CB
      TEMPO 2317/2319 3SM -RA BR OVC004
     FM240000 14012KT 4SM BR VCSH SCT006 OVC009
     FM240600 11009KT 4SM BR OVC002=

USA.gov is the U.S. government's official web portal to all federal, state and local government web resources and services.